sensor_id;sensor_type;location;lat;lon;timestamp;P1;durP1;ratioP1;P2;durP2;ratioP2
25946;SDS011;13745;51.470;9.894;2023-04-03T00:00:19;6.47;;;1.02;;
25946;SDS011;13745;51.470;9.894;2023-04-03T00:03:04;3.13;;;0.70;;
25946;SDS011;13745;51.470;9.894;2023-04-03T00:05:49;3.25;;;0.85;;
25946;SDS011;13745;51.470;9.894;2023-04-03T00:08:36;3.83;;;0.80;;
25946;SDS011;13745;51.470;9.894;2023-04-03T00:11:21;3.17;;;0.88;;
25946;SDS011;13745;51.470;9.894;2023-04-03T00:14:06;1.85;;;0.63;;
25946;SDS011;13745;51.470;9.894;2023-04-03T00:16:51;3.92;;;0.80;;
25946;SDS011;13745;51.470;9.894;2023-04-03T00:19:36;4.43;;;1.27;;
25946;SDS011;13745;51.470;9.894;2023-04-03T00:22:21;3.50;;;1.05;;
25946;SDS011;13745;51.470;9.894;2023-04-03T00:25:08;3.25;;;1.00;;
25946;SDS011;13745;51.470;9.894;2023-04-03T00:27:54;3.22;;;0.80;;
25946;SDS011;13745;51.470;9.894;2023-04-03T00:30:40;2.83;;;0.70;;
25946;SDS011;13745;51.470;9.894;2023-04-03T00:33:25;7.97;;;1.50;;
25946;SDS011;13745;51.470;9.894;2023-04-03T00:36:11;1.95;;;0.88;;
25946;SDS011;13745;51.470;9.894;2023-04-03T00:38:57;2.53;;;0.82;;
25946;SDS011;13745;51.470;9.894;2023-04-03T00:41:43;2.58;;;0.63;;
25946;SDS011;13745;51.470;9.894;2023-04-03T00:47:51;3.95;;;0.90;;
25946;SDS011;13745;51.470;9.894;2023-04-03T00:50:37;7.68;;;1.08;;
25946;SDS011;13745;51.470;9.894;2023-04-03T00:53:25;5.40;;;0.95;;
25946;SDS011;13745;51.470;9.894;2023-04-03T00:56:15;3.78;;;0.70;;
25946;SDS011;13745;51.470;9.894;2023-04-03T00:59:04;4.65;;;1.10;;
25946;SDS011;13745;51.470;9.894;2023-04-03T01:01:53;6.20;;;1.20;;
25946;SDS011;13745;51.470;9.894;2023-04-03T01:04:40;4.15;;;1.23;;
25946;SDS011;13745;51.470;9.894;2023-04-03T01:07:29;4.72;;;0.90;;
25946;SDS011;13745;51.470;9.894;2023-04-03T01:10:17;4.32;;;1.17;;
25946;SDS011;13745;51.470;9.894;2023-04-03T01:13:16;4.63;;;1.20;;
25946;SDS011;13745;51.470;9.894;2023-04-03T01:16:06;3.40;;;1.05;;
25946;SDS011;13745;51.470;9.894;2023-04-03T01:18:51;4.57;;;1.00;;
25946;SDS011;13745;51.470;9.894;2023-04-03T01:22:00;4.60;;;1.45;;
25946;SDS011;13745;51.470;9.894;2023-04-03T01:24:54;4.82;;;1.20;;
25946;SDS011;13745;51.470;9.894;2023-04-03T01:27:39;4.10;;;1.10;;
25946;SDS011;13745;51.470;9.894;2023-04-03T01:30:26;2.50;;;1.20;;
25946;SDS011;13745;51.470;9.894;2023-04-03T01:33:18;2.88;;;1.10;;
25946;SDS011;13745;51.470;9.894;2023-04-03T01:36:05;2.22;;;1.00;;
25946;SDS011;13745;51.470;9.894;2023-04-03T01:38:51;3.67;;;1.10;;
25946;SDS011;13745;51.470;9.894;2023-04-03T01:41:37;4.05;;;1.20;;
25946;SDS011;13745;51.470;9.894;2023-04-03T01:44:31;3.63;;;1.20;;
25946;SDS011;13745;51.470;9.894;2023-04-03T01:47:17;2.67;;;1.05;;
25946;SDS011;13745;51.470;9.894;2023-04-03T01:50:04;2.50;;;1.30;;
25946;SDS011;13745;51.470;9.894;2023-04-03T01:52:51;5.45;;;1.70;;
25946;SDS011;13745;51.470;9.894;2023-04-03T01:55:36;3.80;;;1.15;;
25946;SDS011;13745;51.470;9.894;2023-04-03T01:58:22;4.60;;;1.15;;
25946;SDS011;13745;51.470;9.894;2023-04-03T02:01:08;3.50;;;1.30;;
25946;SDS011;13745;51.470;9.894;2023-04-03T02:03:53;6.50;;;0.98;;
25946;SDS011;13745;51.470;9.894;2023-04-03T02:06:39;2.80;;;0.93;;
25946;SDS011;13745;51.470;9.894;2023-04-03T02:09:24;5.60;;;1.20;;
25946;SDS011;13745;51.470;9.894;2023-04-03T02:12:10;3.75;;;0.90;;
25946;SDS011;13745;51.470;9.894;2023-04-03T02:14:55;4.25;;;1.17;;
25946;SDS011;13745;51.470;9.894;2023-04-03T02:17:40;2.65;;;1.10;;
25946;SDS011;13745;51.470;9.894;2023-04-03T02:20:25;4.60;;;1.45;;
25946;SDS011;13745;51.470;9.894;2023-04-03T02:23:12;3.30;;;1.00;;
25946;SDS011;13745;51.470;9.894;2023-04-03T02:26:05;5.78;;;1.00;;
25946;SDS011;13745;51.470;9.894;2023-04-03T02:28:51;2.72;;;0.80;;
25946;SDS011;13745;51.470;9.894;2023-04-03T02:31:36;4.78;;;1.02;;
25946;SDS011;13745;51.470;9.894;2023-04-03T02:34:22;4.93;;;1.00;;
25946;SDS011;13745;51.470;9.894;2023-04-03T02:37:08;8.93;;;1.23;;
25946;SDS011;13745;51.470;9.894;2023-04-03T02:39:55;4.22;;;0.85;;
25946;SDS011;13745;51.470;9.894;2023-04-03T02:42:40;4.82;;;1.35;;
25946;SDS011;13745;51.470;9.894;2023-04-03T02:45:25;4.15;;;0.98;;
25946;SDS011;13745;51.470;9.894;2023-04-03T02:48:10;4.53;;;1.15;;
25946;SDS011;13745;51.470;9.894;2023-04-03T02:50:56;1.45;;;1.00;;
25946;SDS011;13745;51.470;9.894;2023-04-03T02:53:41;5.68;;;1.05;;
25946;SDS011;13745;51.470;9.894;2023-04-03T02:56:32;3.40;;;0.82;;
25946;SDS011;13745;51.470;9.894;2023-04-03T02:59:18;1.50;;;1.00;;
25946;SDS011;13745;51.470;9.894;2023-04-03T03:02:04;2.75;;;1.48;;
25946;SDS011;13745;51.470;9.894;2023-04-03T03:04:49;1.55;;;0.63;;
25946;SDS011;13745;51.470;9.894;2023-04-03T03:07:34;4.10;;;1.10;;
25946;SDS011;13745;51.470;9.894;2023-04-03T03:10:19;5.82;;;1.20;;
25946;SDS011;13745;51.470;9.894;2023-04-03T03:13:06;6.30;;;1.40;;
25946;SDS011;13745;51.470;9.894;2023-04-03T03:15:52;2.15;;;0.93;;
25946;SDS011;13745;51.470;9.894;2023-04-03T03:18:37;7.50;;;1.60;;
25946;SDS011;13745;51.470;9.894;2023-04-03T03:21:22;4.47;;;1.02;;
25946;SDS011;13745;51.470;9.894;2023-04-03T03:24:07;1.75;;;0.85;;
25946;SDS011;13745;51.470;9.894;2023-04-03T03:26:52;4.30;;;0.95;;
25946;SDS011;13745;51.470;9.894;2023-04-03T03:29:39;4.78;;;1.25;;
25946;SDS011;13745;51.470;9.894;2023-04-03T03:32:25;2.75;;;1.75;;
25946;SDS011;13745;51.470;9.894;2023-04-03T03:35:10;5.03;;;1.73;;
25946;SDS011;13745;51.470;9.894;2023-04-03T03:37:55;3.60;;;1.35;;
25946;SDS011;13745;51.470;9.894;2023-04-03T03:40:41;3.90;;;1.05;;
25946;SDS011;13745;51.470;9.894;2023-04-03T03:43:26;3.92;;;0.88;;
25946;SDS011;13745;51.470;9.894;2023-04-03T03:46:13;2.85;;;1.15;;
25946;SDS011;13745;51.470;9.894;2023-04-03T03:48:58;2.60;;;1.10;;
25946;SDS011;13745;51.470;9.894;2023-04-03T03:51:44;4.53;;;1.25;;
25946;SDS011;13745;51.470;9.894;2023-04-03T03:54:29;2.67;;;1.25;;
25946;SDS011;13745;51.470;9.894;2023-04-03T03:57:14;4.60;;;1.58;;
25946;SDS011;13745;51.470;9.894;2023-04-03T03:59:59;4.88;;;1.40;;
25946;SDS011;13745;51.470;9.894;2023-04-03T04:02:46;2.90;;;1.05;;
25946;SDS011;13745;51.470;9.894;2023-04-03T04:05:34;4.53;;;1.02;;
25946;SDS011;13745;51.470;9.894;2023-04-03T04:08:21;6.72;;;1.60;;
25946;SDS011;13745;51.470;9.894;2023-04-03T04:11:06;5.30;;;1.80;;
25946;SDS011;13745;51.470;9.894;2023-04-03T04:13:51;4.55;;;1.45;;
25946;SDS011;13745;51.470;9.894;2023-04-03T04:16:40;2.65;;;1.00;;
25946;SDS011;13745;51.470;9.894;2023-04-03T04:19:33;5.40;;;1.92;;
25946;SDS011;13745;51.470;9.894;2023-04-03T04:22:19;7.47;;;1.50;;
25946;SDS011;13745;51.470;9.894;2023-04-03T04:25:04;6.03;;;1.55;;
25946;SDS011;13745;51.470;9.894;2023-04-03T04:27:50;3.03;;;1.30;;
25946;SDS011;13745;51.470;9.894;2023-04-03T04:30:35;3.00;;;1.40;;
25946;SDS011;13745;51.470;9.894;2023-04-03T04:33:21;3.53;;;1.20;;
25946;SDS011;13745;51.470;9.894;2023-04-03T04:36:08;3.55;;;2.08;;
25946;SDS011;13745;51.470;9.894;2023-04-03T04:38:54;6.00;;;1.13;;
25946;SDS011;13745;51.470;9.894;2023-04-03T04:41:41;5.07;;;1.10;;
25946;SDS011;13745;51.470;9.894;2023-04-03T04:44:26;2.97;;;1.27;;
25946;SDS011;13745;51.470;9.894;2023-04-03T04:47:12;2.63;;;1.77;;
25946;SDS011;13745;51.470;9.894;2023-04-03T04:49:57;3.88;;;1.10;;
25946;SDS011;13745;51.470;9.894;2023-04-03T04:52:45;6.20;;;1.80;;
25946;SDS011;13745;51.470;9.894;2023-04-03T04:55:30;5.72;;;1.35;;
25946;SDS011;13745;51.470;9.894;2023-04-03T04:58:15;3.58;;;1.17;;
25946;SDS011;13745;51.470;9.894;2023-04-03T05:01:00;5.45;;;1.02;;
25946;SDS011;13745;51.470;9.894;2023-04-03T05:03:47;8.45;;;1.25;;
25946;SDS011;13745;51.470;9.894;2023-04-03T05:06:34;4.90;;;1.40;;
25946;SDS011;13745;51.470;9.894;2023-04-03T05:09:23;5.38;;;1.70;;
25946;SDS011;13745;51.470;9.894;2023-04-03T05:12:09;6.70;;;1.40;;
25946;SDS011;13745;51.470;9.894;2023-04-03T05:15:00;6.47;;;1.38;;
25946;SDS011;13745;51.470;9.894;2023-04-03T05:17:47;8.27;;;0.98;;
25946;SDS011;13745;51.470;9.894;2023-04-03T05:20:34;5.18;;;1.17;;
25946;SDS011;13745;51.470;9.894;2023-04-03T05:23:20;7.63;;;1.23;;
25946;SDS011;13745;51.470;9.894;2023-04-03T05:26:07;6.20;;;1.48;;
25946;SDS011;13745;51.470;9.894;2023-04-03T05:28:53;4.05;;;1.63;;
25946;SDS011;13745;51.470;9.894;2023-04-03T05:31:38;3.45;;;1.20;;
25946;SDS011;13745;51.470;9.894;2023-04-03T05:34:25;2.58;;;1.23;;
25946;SDS011;13745;51.470;9.894;2023-04-03T05:37:12;4.68;;;1.38;;
25946;SDS011;13745;51.470;9.894;2023-04-03T05:39:58;5.22;;;1.48;;
25946;SDS011;13745;51.470;9.894;2023-04-03T05:42:45;7.07;;;1.17;;
25946;SDS011;13745;51.470;9.894;2023-04-03T05:45:32;7.13;;;1.40;;
25946;SDS011;13745;51.470;9.894;2023-04-03T05:48:17;6.32;;;1.60;;
25946;SDS011;13745;51.470;9.894;2023-04-03T05:51:03;7.03;;;1.50;;
25946;SDS011;13745;51.470;9.894;2023-04-03T05:53:48;7.05;;;1.30;;
25946;SDS011;13745;51.470;9.894;2023-04-03T05:56:40;5.20;;;1.55;;
25946;SDS011;13745;51.470;9.894;2023-04-03T05:59:26;11.15;;;2.95;;
25946;SDS011;13745;51.470;9.894;2023-04-03T06:02:15;11.95;;;3.22;;
25946;SDS011;13745;51.470;9.894;2023-04-03T06:05:03;7.70;;;2.70;;
25946;SDS011;13745;51.470;9.894;2023-04-03T06:07:49;6.45;;;2.60;;
25946;SDS011;13745;51.470;9.894;2023-04-03T06:10:34;4.63;;;1.80;;
25946;SDS011;13745;51.470;9.894;2023-04-03T06:13:20;5.20;;;2.00;;
25946;SDS011;13745;51.470;9.894;2023-04-03T06:16:08;4.93;;;2.65;;
25946;SDS011;13745;51.470;9.894;2023-04-03T06:18:54;6.38;;;2.65;;
25946;SDS011;13745;51.470;9.894;2023-04-03T06:21:40;10.05;;;2.30;;
25946;SDS011;13745;51.470;9.894;2023-04-03T06:24:26;5.65;;;2.20;;
25946;SDS011;13745;51.470;9.894;2023-04-03T06:27:11;6.22;;;1.50;;
25946;SDS011;13745;51.470;9.894;2023-04-03T06:29:56;3.58;;;1.42;;
25946;SDS011;13745;51.470;9.894;2023-04-03T06:32:43;8.88;;;1.98;;
25946;SDS011;13745;51.470;9.894;2023-04-03T06:35:28;4.03;;;2.10;;
25946;SDS011;13745;51.470;9.894;2023-04-03T06:38:14;5.70;;;2.10;;
25946;SDS011;13745;51.470;9.894;2023-04-03T06:40:58;3.83;;;2.42;;
25946;SDS011;13745;51.470;9.894;2023-04-03T06:43:44;6.35;;;2.30;;
25946;SDS011;13745;51.470;9.894;2023-04-03T06:46:29;6.68;;;2.35;;
25946;SDS011;13745;51.470;9.894;2023-04-03T06:49:15;9.25;;;2.40;;
25946;SDS011;13745;51.470;9.894;2023-04-03T06:52:00;6.10;;;2.22;;
25946;SDS011;13745;51.470;9.894;2023-04-03T06:54:45;9.02;;;1.73;;
25946;SDS011;13745;51.470;9.894;2023-04-03T06:57:30;3.80;;;1.65;;
25946;SDS011;13745;51.470;9.894;2023-04-03T07:00:16;4.75;;;1.85;;
25946;SDS011;13745;51.470;9.894;2023-04-03T07:03:02;3.60;;;1.42;;
25946;SDS011;13745;51.470;9.894;2023-04-03T07:05:49;4.25;;;1.60;;
25946;SDS011;13745;51.470;9.894;2023-04-03T07:08:34;5.15;;;1.50;;
25946;SDS011;13745;51.470;9.894;2023-04-03T07:11:19;7.75;;;1.40;;
25946;SDS011;13745;51.470;9.894;2023-04-03T07:14:04;4.45;;;2.25;;
25946;SDS011;13745;51.470;9.894;2023-04-03T07:16:51;12.85;;;5.47;;
25946;SDS011;13745;51.470;9.894;2023-04-03T07:19:36;8.88;;;3.08;;
25946;SDS011;13745;51.470;9.894;2023-04-03T07:22:22;3.50;;;1.50;;
25946;SDS011;13745;51.470;9.894;2023-04-03T07:25:08;2.47;;;1.35;;
25946;SDS011;13745;51.470;9.894;2023-04-03T07:27:54;4.78;;;1.80;;
25946;SDS011;13745;51.470;9.894;2023-04-03T07:30:43;4.22;;;1.00;;
25946;SDS011;13745;51.470;9.894;2023-04-03T07:33:28;4.85;;;3.45;;
25946;SDS011;13745;51.470;9.894;2023-04-03T07:36:15;3.50;;;0.88;;
25946;SDS011;13745;51.470;9.894;2023-04-03T07:39:03;8.20;;;1.50;;
25946;SDS011;13745;51.470;9.894;2023-04-03T07:41:48;2.35;;;0.90;;
25946;SDS011;13745;51.470;9.894;2023-04-03T07:44:33;3.22;;;1.00;;
25946;SDS011;13745;51.470;9.894;2023-04-03T07:47:19;5.05;;;1.15;;
25946;SDS011;13745;51.470;9.894;2023-04-03T07:50:05;4.55;;;1.10;;
25946;SDS011;13745;51.470;9.894;2023-04-03T07:52:51;8.43;;;1.40;;
25946;SDS011;13745;51.470;9.894;2023-04-03T07:55:39;3.15;;;0.70;;
25946;SDS011;13745;51.470;9.894;2023-04-03T07:58:27;2.15;;;0.80;;
25946;SDS011;13745;51.470;9.894;2023-04-03T08:01:12;4.10;;;0.85;;
25946;SDS011;13745;51.470;9.894;2023-04-03T08:03:57;1.73;;;0.73;;
25946;SDS011;13745;51.470;9.894;2023-04-03T08:06:42;3.10;;;0.80;;
25946;SDS011;13745;51.470;9.894;2023-04-03T08:09:27;1.30;;;0.77;;
25946;SDS011;13745;51.470;9.894;2023-04-03T08:12:13;3.70;;;1.27;;
25946;SDS011;13745;51.470;9.894;2023-04-03T08:14:59;4.65;;;1.40;;
25946;SDS011;13745;51.470;9.894;2023-04-03T08:17:45;2.40;;;0.75;;
25946;SDS011;13745;51.470;9.894;2023-04-03T08:20:30;3.67;;;0.80;;
25946;SDS011;13745;51.470;9.894;2023-04-03T08:23:16;5.07;;;0.88;;
25946;SDS011;13745;51.470;9.894;2023-04-03T08:26:05;1.50;;;0.52;;
25946;SDS011;13745;51.470;9.894;2023-04-03T08:28:53;3.40;;;0.75;;
25946;SDS011;13745;51.470;9.894;2023-04-03T08:31:38;4.65;;;0.95;;
25946;SDS011;13745;51.470;9.894;2023-04-03T08:34:23;1.77;;;0.93;;
25946;SDS011;13745;51.470;9.894;2023-04-03T08:36:59;2.28;;;0.65;;
25946;SDS011;13745;51.470;9.894;2023-04-03T08:39:44;2.80;;;0.70;;
25946;SDS011;13745;51.470;9.894;2023-04-03T08:42:36;2.22;;;0.95;;
25946;SDS011;13745;51.470;9.894;2023-04-03T08:45:34;3.83;;;0.68;;
25946;SDS011;13745;51.470;9.894;2023-04-03T08:48:27;2.88;;;1.17;;
25946;SDS011;13745;51.470;9.894;2023-04-03T08:51:16;5.32;;;0.80;;
25946;SDS011;13745;51.470;9.894;2023-04-03T08:54:05;2.33;;;1.00;;
25946;SDS011;13745;51.470;9.894;2023-04-03T08:57:01;4.05;;;0.95;;
25946;SDS011;13745;51.470;9.894;2023-04-03T08:59:48;1.50;;;0.50;;
25946;SDS011;13745;51.470;9.894;2023-04-03T09:02:34;2.70;;;0.50;;
25946;SDS011;13745;51.470;9.894;2023-04-03T09:05:31;3.08;;;1.50;;
25946;SDS011;13745;51.470;9.894;2023-04-03T09:08:27;2.25;;;0.60;;
25946;SDS011;13745;51.470;9.894;2023-04-03T09:11:16;1.45;;;0.60;;
25946;SDS011;13745;51.470;9.894;2023-04-03T09:14:07;1.90;;;0.75;;
25946;SDS011;13745;51.470;9.894;2023-04-03T09:17:02;4.47;;;0.73;;
25946;SDS011;13745;51.470;9.894;2023-04-03T09:19:52;2.30;;;0.85;;
25946;SDS011;13745;51.470;9.894;2023-04-03T09:22:41;1.65;;;0.60;;
25946;SDS011;13745;51.470;9.894;2023-04-03T09:25:28;2.85;;;0.98;;
25946;SDS011;13745;51.470;9.894;2023-04-03T09:28:18;1.80;;;0.80;;
25946;SDS011;13745;51.470;9.894;2023-04-03T09:31:05;3.55;;;0.70;;
25946;SDS011;13745;51.470;9.894;2023-04-03T09:34:05;2.28;;;0.65;;
25946;SDS011;13745;51.470;9.894;2023-04-03T09:36:54;3.35;;;0.80;;
25946;SDS011;13745;51.470;9.894;2023-04-03T09:39:50;4.43;;;0.80;;
25946;SDS011;13745;51.470;9.894;2023-04-03T09:42:38;2.63;;;0.90;;
25946;SDS011;13745;51.470;9.894;2023-04-03T09:45:27;1.38;;;0.43;;
25946;SDS011;13745;51.470;9.894;2023-04-03T09:48:15;2.22;;;0.50;;
25946;SDS011;13745;51.470;9.894;2023-04-03T09:51:02;1.73;;;0.60;;
25946;SDS011;13745;51.470;9.894;2023-04-03T09:53:49;1.30;;;0.40;;
25946;SDS011;13745;51.470;9.894;2023-04-03T09:56:34;3.40;;;0.52;;
25946;SDS011;13745;51.470;9.894;2023-04-03T09:59:19;3.88;;;0.88;;
25946;SDS011;13745;51.470;9.894;2023-04-03T10:05:25;2.30;;;1.20;;
25946;SDS011;13745;51.470;9.894;2023-04-03T10:08:23;2.33;;;0.80;;
25946;SDS011;13745;51.470;9.894;2023-04-03T10:11:15;4.45;;;1.02;;
25946;SDS011;13745;51.470;9.894;2023-04-03T10:14:03;1.85;;;0.60;;
25946;SDS011;13745;51.470;9.894;2023-04-03T10:16:50;3.72;;;0.90;;
25946;SDS011;13745;51.470;9.894;2023-04-03T10:19:42;1.60;;;0.52;;
25946;SDS011;13745;51.470;9.894;2023-04-03T10:22:31;2.55;;;1.13;;
25946;SDS011;13745;51.470;9.894;2023-04-03T10:25:26;10.32;;;3.92;;
25946;SDS011;13745;51.470;9.894;2023-04-03T10:28:17;5.53;;;2.50;;
25946;SDS011;13745;51.470;9.894;2023-04-03T10:31:09;3.05;;;0.90;;
25946;SDS011;13745;51.470;9.894;2023-04-03T10:34:01;1.83;;;0.50;;
25946;SDS011;13745;51.470;9.894;2023-04-03T10:36:50;2.20;;;0.75;;
25946;SDS011;13745;51.470;9.894;2023-04-03T10:39:47;2.25;;;0.50;;
25946;SDS011;13745;51.470;9.894;2023-04-03T10:42:39;2.83;;;0.70;;
25946;SDS011;13745;51.470;9.894;2023-04-03T10:45:33;2.45;;;0.60;;
25946;SDS011;13745;51.470;9.894;2023-04-03T10:48:35;1.85;;;0.50;;
25946;SDS011;13745;51.470;9.894;2023-04-03T10:51:28;3.65;;;0.80;;
25946;SDS011;13745;51.470;9.894;2023-04-03T10:54:18;2.97;;;1.00;;
25946;SDS011;13745;51.470;9.894;2023-04-03T10:57:09;1.45;;;0.60;;
25946;SDS011;13745;51.470;9.894;2023-04-03T10:59:56;1.73;;;0.68;;
25946;SDS011;13745;51.470;9.894;2023-04-03T11:02:48;3.10;;;0.80;;
25946;SDS011;13745;51.470;9.894;2023-04-03T11:05:37;2.60;;;0.70;;
25946;SDS011;13745;51.470;9.894;2023-04-03T11:08:26;2.13;;;0.70;;
25946;SDS011;13745;51.470;9.894;2023-04-03T11:11:15;2.10;;;0.75;;
25946;SDS011;13745;51.470;9.894;2023-04-03T11:14:05;1.70;;;0.85;;
25946;SDS011;13745;51.470;9.894;2023-04-03T11:17:11;3.40;;;1.00;;
25946;SDS011;13745;51.470;9.894;2023-04-03T11:20:08;3.00;;;0.90;;
25946;SDS011;13745;51.470;9.894;2023-04-03T11:23:00;1.88;;;0.90;;
25946;SDS011;13745;51.470;9.894;2023-04-03T11:25:48;3.45;;;0.75;;
25946;SDS011;13745;51.470;9.894;2023-04-03T11:28:37;4.05;;;1.00;;
25946;SDS011;13745;51.470;9.894;2023-04-03T11:31:26;3.50;;;1.00;;
25946;SDS011;13745;51.470;9.894;2023-04-03T11:34:24;3.88;;;0.98;;
25946;SDS011;13745;51.470;9.894;2023-04-03T11:37:21;1.33;;;0.65;;
25946;SDS011;13745;51.470;9.894;2023-04-03T11:40:19;1.50;;;0.70;;
25946;SDS011;13745;51.470;9.894;2023-04-03T11:43:07;1.90;;;0.63;;
25946;SDS011;13745;51.470;9.894;2023-04-03T11:46:05;5.78;;;0.80;;
25946;SDS011;13745;51.470;9.894;2023-04-03T11:48:52;3.28;;;0.75;;
25946;SDS011;13745;51.470;9.894;2023-04-03T11:51:43;1.38;;;0.60;;
25946;SDS011;13745;51.470;9.894;2023-04-03T11:54:42;1.85;;;0.55;;
25946;SDS011;13745;51.470;9.894;2023-04-03T11:57:43;2.03;;;0.60;;
25946;SDS011;13745;51.470;9.894;2023-04-03T12:00:56;1.33;;;0.60;;
25946;SDS011;13745;51.470;9.894;2023-04-03T12:04:05;4.57;;;1.23;;
25946;SDS011;13745;51.470;9.894;2023-04-03T12:13:12;1.92;;;0.93;;
25946;SDS011;13745;51.470;9.894;2023-04-03T12:16:00;1.70;;;0.73;;
25946;SDS011;13745;51.470;9.894;2023-04-03T12:18:54;1.58;;;0.70;;
25946;SDS011;13745;51.470;9.894;2023-04-03T12:24:56;2.30;;;0.80;;
25946;SDS011;13745;51.470;9.894;2023-04-03T12:27:43;2.33;;;0.90;;
25946;SDS011;13745;51.470;9.894;2023-04-03T12:30:29;1.92;;;0.65;;
25946;SDS011;13745;51.470;9.894;2023-04-03T12:33:18;1.75;;;0.70;;
25946;SDS011;13745;51.470;9.894;2023-04-03T12:36:10;3.55;;;0.90;;
25946;SDS011;13745;51.470;9.894;2023-04-03T12:39:05;1.85;;;0.90;;
25946;SDS011;13745;51.470;9.894;2023-04-03T12:42:02;2.90;;;0.65;;
25946;SDS011;13745;51.470;9.894;2023-04-03T12:45:01;2.25;;;0.77;;
25946;SDS011;13745;51.470;9.894;2023-04-03T12:47:54;1.35;;;0.60;;
25946;SDS011;13745;51.470;9.894;2023-04-03T12:50:40;2.75;;;1.08;;
25946;SDS011;13745;51.470;9.894;2023-04-03T12:53:27;2.67;;;0.65;;
25946;SDS011;13745;51.470;9.894;2023-04-03T12:56:19;1.70;;;0.93;;
25946;SDS011;13745;51.470;9.894;2023-04-03T12:59:13;3.08;;;0.80;;
25946;SDS011;13745;51.470;9.894;2023-04-03T13:02:02;7.22;;;1.00;;
25946;SDS011;13745;51.470;9.894;2023-04-03T13:04:52;1.85;;;0.80;;
25946;SDS011;13745;51.470;9.894;2023-04-03T13:07:41;2.53;;;0.90;;
25946;SDS011;13745;51.470;9.894;2023-04-03T13:10:27;3.38;;;1.25;;
25946;SDS011;13745;51.470;9.894;2023-04-03T13:13:13;4.40;;;0.80;;
25946;SDS011;13745;51.470;9.894;2023-04-03T13:15:59;3.25;;;0.95;;
25946;SDS011;13745;51.470;9.894;2023-04-03T13:18:55;1.38;;;0.65;;
25946;SDS011;13745;51.470;9.894;2023-04-03T13:21:40;5.22;;;1.33;;
25946;SDS011;13745;51.470;9.894;2023-04-03T13:24:27;2.83;;;0.98;;
25946;SDS011;13745;51.470;9.894;2023-04-03T13:27:14;5.80;;;1.33;;
25946;SDS011;13745;51.470;9.894;2023-04-03T13:30:01;3.72;;;1.02;;
25946;SDS011;13745;51.470;9.894;2023-04-03T13:32:48;1.67;;;0.80;;
25946;SDS011;13745;51.470;9.894;2023-04-03T13:35:36;2.17;;;0.73;;
25946;SDS011;13745;51.470;9.894;2023-04-03T13:38:23;3.75;;;0.80;;
25946;SDS011;13745;51.470;9.894;2023-04-03T13:41:23;2.42;;;0.95;;
25946;SDS011;13745;51.470;9.894;2023-04-03T13:44:26;2.22;;;0.90;;
25946;SDS011;13745;51.470;9.894;2023-04-03T13:47:15;1.73;;;0.90;;
25946;SDS011;13745;51.470;9.894;2023-04-03T13:50:12;4.05;;;1.10;;
25946;SDS011;13745;51.470;9.894;2023-04-03T13:53:02;2.10;;;0.80;;
25946;SDS011;13745;51.470;9.894;2023-04-03T13:55:53;2.53;;;0.93;;
25946;SDS011;13745;51.470;9.894;2023-04-03T13:58:51;2.20;;;0.85;;
25946;SDS011;13745;51.470;9.894;2023-04-03T14:01:41;1.85;;;0.70;;
25946;SDS011;13745;51.470;9.894;2023-04-03T14:04:30;3.88;;;1.10;;
25946;SDS011;13745;51.470;9.894;2023-04-03T14:07:17;3.30;;;1.08;;
25946;SDS011;13745;51.470;9.894;2023-04-03T14:12:46;2.20;;;0.73;;
25946;SDS011;13745;51.470;9.894;2023-04-03T14:15:32;2.75;;;1.60;;
25946;SDS011;13745;51.470;9.894;2023-04-03T14:18:18;3.88;;;1.20;;
25946;SDS011;13745;51.470;9.894;2023-04-03T14:21:04;5.05;;;1.67;;
25946;SDS011;13745;51.470;9.894;2023-04-03T14:23:49;5.47;;;1.90;;
25946;SDS011;13745;51.470;9.894;2023-04-03T14:26:34;3.25;;;1.70;;
25946;SDS011;13745;51.470;9.894;2023-04-03T14:29:21;4.63;;;1.73;;
25946;SDS011;13745;51.470;9.894;2023-04-03T14:32:10;3.78;;;1.38;;
25946;SDS011;13745;51.470;9.894;2023-04-03T14:34:56;1.58;;;0.90;;
25946;SDS011;13745;51.470;9.894;2023-04-03T14:37:41;4.18;;;1.08;;
25946;SDS011;13745;51.470;9.894;2023-04-03T14:40:27;1.50;;;0.80;;
25946;SDS011;13745;51.470;9.894;2023-04-03T14:43:12;3.00;;;0.90;;
25946;SDS011;13745;51.470;9.894;2023-04-03T14:45:59;1.90;;;0.80;;
25946;SDS011;13745;51.470;9.894;2023-04-03T14:48:45;3.22;;;0.93;;
25946;SDS011;13745;51.470;9.894;2023-04-03T14:51:30;2.95;;;1.00;;
25946;SDS011;13745;51.470;9.894;2023-04-03T14:54:16;1.95;;;0.90;;
25946;SDS011;13745;51.470;9.894;2023-04-03T14:57:08;2.60;;;0.60;;
25946;SDS011;13745;51.470;9.894;2023-04-03T14:59:58;2.42;;;0.75;;
25946;SDS011;13745;51.470;9.894;2023-04-03T15:02:46;4.40;;;0.75;;
25946;SDS011;13745;51.470;9.894;2023-04-03T15:05:32;1.77;;;0.70;;
25946;SDS011;13745;51.470;9.894;2023-04-03T15:08:18;2.40;;;0.85;;
25946;SDS011;13745;51.470;9.894;2023-04-03T15:11:05;3.38;;;0.82;;
25946;SDS011;13745;51.470;9.894;2023-04-03T15:13:50;4.20;;;1.40;;
25946;SDS011;13745;51.470;9.894;2023-04-03T15:16:35;3.95;;;0.77;;
25946;SDS011;13745;51.470;9.894;2023-04-03T15:19:23;2.05;;;1.05;;
25946;SDS011;13745;51.470;9.894;2023-04-03T15:22:08;3.22;;;0.98;;
25946;SDS011;13745;51.470;9.894;2023-04-03T15:24:58;2.15;;;1.35;;
25946;SDS011;13745;51.470;9.894;2023-04-03T15:27:43;2.65;;;0.80;;
25946;SDS011;13745;51.470;9.894;2023-04-03T15:30:28;4.15;;;0.90;;
25946;SDS011;13745;51.470;9.894;2023-04-03T15:33:13;2.17;;;1.00;;
25946;SDS011;13745;51.470;9.894;2023-04-03T15:36:00;2.10;;;0.90;;
25946;SDS011;13745;51.470;9.894;2023-04-03T15:38:45;4.22;;;1.10;;
25946;SDS011;13745;51.470;9.894;2023-04-03T15:41:30;4.13;;;1.15;;
25946;SDS011;13745;51.470;9.894;2023-04-03T15:44:15;3.35;;;0.90;;
25946;SDS011;13745;51.470;9.894;2023-04-03T15:47:01;3.55;;;0.98;;
25946;SDS011;13745;51.470;9.894;2023-04-03T15:49:46;2.58;;;1.10;;
25946;SDS011;13745;51.470;9.894;2023-04-03T15:52:33;1.95;;;0.80;;
25946;SDS011;13745;51.470;9.894;2023-04-03T15:55:18;2.38;;;0.95;;
25946;SDS011;13745;51.470;9.894;2023-04-03T15:58:03;1.85;;;0.70;;
25946;SDS011;13745;51.470;9.894;2023-04-03T16:00:48;1.20;;;0.77;;
25946;SDS011;13745;51.470;9.894;2023-04-03T16:03:34;4.05;;;1.23;;
25946;SDS011;13745;51.470;9.894;2023-04-03T16:06:19;2.92;;;0.95;;
25946;SDS011;13745;51.470;9.894;2023-04-03T16:09:06;2.00;;;0.90;;
25946;SDS011;13745;51.470;9.894;2023-04-03T16:11:52;1.20;;;0.80;;
25946;SDS011;13745;51.470;9.894;2023-04-03T16:14:37;1.38;;;0.93;;
25946;SDS011;13745;51.470;9.894;2023-04-03T16:17:22;3.20;;;0.90;;
25946;SDS011;13745;51.470;9.894;2023-04-03T16:20:08;3.95;;;1.52;;
25946;SDS011;13745;51.470;9.894;2023-04-03T16:22:55;3.53;;;1.80;;
25946;SDS011;13745;51.470;9.894;2023-04-03T16:25:43;3.70;;;1.40;;
25946;SDS011;13745;51.470;9.894;2023-04-03T16:28:29;4.82;;;1.10;;
25946;SDS011;13745;51.470;9.894;2023-04-03T16:31:14;6.05;;;1.40;;
25946;SDS011;13745;51.470;9.894;2023-04-03T16:34:00;3.40;;;1.30;;
25946;SDS011;13745;51.470;9.894;2023-04-03T16:36:45;3.20;;;1.25;;
25946;SDS011;13745;51.470;9.894;2023-04-03T16:39:30;6.20;;;3.20;;
25946;SDS011;13745;51.470;9.894;2023-04-03T16:42:16;5.75;;;1.50;;
25946;SDS011;13745;51.470;9.894;2023-04-03T16:45:01;1.60;;;0.80;;
25946;SDS011;13745;51.470;9.894;2023-04-03T16:47:47;2.70;;;0.80;;
25946;SDS011;13745;51.470;9.894;2023-04-03T16:50:32;1.73;;;1.15;;
25946;SDS011;13745;51.470;9.894;2023-04-03T16:53:17;2.50;;;1.40;;
25946;SDS011;13745;51.470;9.894;2023-04-03T16:56:02;1.80;;;0.82;;
25946;SDS011;13745;51.470;9.894;2023-04-03T16:58:49;6.53;;;0.93;;
25946;SDS011;13745;51.470;9.894;2023-04-03T17:01:34;2.45;;;1.10;;
25946;SDS011;13745;51.470;9.894;2023-04-03T17:04:19;3.20;;;0.95;;
25946;SDS011;13745;51.470;9.894;2023-04-03T17:07:04;2.72;;;0.88;;
25946;SDS011;13745;51.470;9.894;2023-04-03T17:09:49;2.67;;;1.25;;